createdAt,value
2023-09-21T00:02:52.775Z,100523.75
2023-09-21T00:05:57.862Z,100528.59
2023-09-21T00:09:00.749Z,100526.19
2023-09-21T00:12:03.942Z,100520.22
2023-09-21T00:15:07.972Z,100518.91
2023-09-21T00:18:10.916Z,100520.25
2023-09-21T00:21:17.082Z,100517.06
2023-09-21T00:24:23.381Z,100512.47
2023-09-21T00:27:29.950Z,100506.56
2023-09-21T00:30:32.698Z,100509.25
2023-09-21T00:33:40.729Z,100507.88
2023-09-21T00:36:46.530Z,100513.53
2023-09-21T00:39:49.741Z,100504.13
2023-09-21T00:42:57.457Z,100499.28
2023-09-21T00:46:03.204Z,100496.31
2023-09-21T00:49:08.080Z,100485.53
2023-09-21T00:52:13.410Z,100480.41
2023-09-21T00:55:40.699Z,100474.50
2023-09-21T00:58:55.479Z,100474.78
2023-09-21T01:01:58.885Z,100472.38
2023-09-21T01:05:01.679Z,100467.53
2023-09-21T01:08:06.585Z,100466.69
2023-09-21T01:11:15.981Z,100459.47
2023-09-21T01:14:18.876Z,100457.03
2023-09-21T01:17:22.374Z,100456.47
2023-09-21T01:20:29.279Z,100455.44
2023-09-21T01:23:47.724Z,100454.06
2023-09-21T01:26:50.839Z,100452.16
2023-09-21T01:29:53.731Z,100449.19
2023-09-21T01:32:56.778Z,100449.47
2023-09-21T01:35:59.569Z,100441.94
2023-09-21T01:39:02.367Z,100439.81
2023-09-21T01:42:05.461Z,100438.72
2023-09-21T01:45:15.113Z,100432.00
2023-09-21T01:48:21.597Z,100436.28
2023-09-21T01:51:24.667Z,100436.31
2023-09-21T01:54:28.758Z,100433.09
2023-09-21T01:57:31.523Z,100426.88
2023-09-21T02:00:38.031Z,100423.94
2023-09-21T02:03:40.950Z,100415.56
2023-09-21T02:06:43.801Z,100420.44
2023-09-21T02:09:46.589Z,100419.09
2023-09-21T02:12:57.653Z,100415.31
2023-09-21T02:16:00.564Z,100423.94
2023-09-21T02:19:05.190Z,100412.66
2023-09-21T02:22:08.892Z,100423.41
2023-09-21T02:25:11.982Z,100416.66
2023-09-21T02:28:14.720Z,100408.31
2023-09-21T02:31:17.614Z,100411.56
2023-09-21T02:34:20.409Z,100412.91
2023-09-21T02:37:23.158Z,100402.38
2023-09-21T02:40:26.133Z,100413.97
2023-09-21T02:43:30.563Z,100407.78
2023-09-21T02:46:34.277Z,100410.19
2023-09-21T02:49:37.076Z,100415.03
2023-09-21T02:52:39.933Z,100411.81
2023-09-21T02:55:44.162Z,100425.25
2023-09-21T02:58:47.579Z,100419.91
2023-09-21T03:01:51.441Z,100404.56
2023-09-21T03:04:56.569Z,100400.50
2023-09-21T03:07:59.317Z,100393.25
2023-09-21T03:11:02.103Z,100395.94
2023-09-21T03:14:05.984Z,100389.47
2023-09-21T03:17:09.345Z,100395.94
2023-09-21T03:20:14.262Z,100401.88
2023-09-21T03:23:17.795Z,100401.59
2023-09-21T03:26:22.874Z,100397.56
2023-09-21T03:29:26.633Z,100386.53
2023-09-21T03:32:30.563Z,100383.56
2023-09-21T03:35:33.812Z,100383.28
2023-09-21T03:38:36.551Z,100376.03
2023-09-21T03:41:39.439Z,100380.63
2023-09-21T03:44:43.577Z,100378.72
2023-09-21T03:47:47.950Z,100379.53
2023-09-21T03:50:53.574Z,100381.16
2023-09-21T03:54:00.674Z,100379.31
2023-09-21T03:57:03.540Z,100389.50
2023-09-21T04:00:26.367Z,100383.06
2023-09-21T04:03:30.768Z,100375.25
2023-09-21T04:06:36.189Z,100365.59
2023-09-21T04:09:38.925Z,100358.56
2023-09-21T04:12:41.927Z,100361.28
2023-09-21T04:15:44.681Z,100352.66
2023-09-21T04:18:47.663Z,100359.13
2023-09-21T04:21:52.255Z,100353.22
2023-09-21T04:24:55.353Z,100361.00
2023-09-21T04:27:59.081Z,100358.88
2023-09-21T04:31:02.595Z,100373.38
2023-09-21T04:34:05.961Z,100366.38
2023-09-21T04:37:10.486Z,100361.00
2023-09-21T04:40:13.978Z,100356.69
2023-09-21T04:43:18.868Z,100363.97
2023-09-21T04:46:21.839Z,100363.97
2023-09-21T04:49:26.332Z,100361.81
2023-09-21T04:52:32.130Z,100367.47
2023-09-21T04:55:37.300Z,100360.22
2023-09-21T04:58:40.079Z,100361.25
2023-09-21T05:01:43.037Z,100370.13
2023-09-21T05:04:46.167Z,100360.72
2023-09-21T05:07:48.954Z,100360.47
2023-09-21T05:10:52.319Z,100358.56
2023-09-21T05:13:55.162Z,100348.06
2023-09-21T05:16:59.912Z,100353.19
2023-09-21T05:20:02.828Z,100359.66
2023-09-21T05:23:05.988Z,100351.84
2023-09-21T05:26:08.749Z,100352.41
2023-09-21T05:29:12.376Z,100348.91
2023-09-21T05:32:15.266Z,100350.78
2023-09-21T05:35:18.239Z,100350.19
2023-09-21T05:38:21.409Z,100352.34
2023-09-21T05:41:24.193Z,100346.38
2023-09-21T05:44:27.212Z,100349.63
2023-09-21T05:47:30.822Z,100334.25
2023-09-21T05:50:34.332Z,100329.34
2023-09-21T05:53:37.416Z,100333.09
2023-09-21T05:56:40.576Z,100327.97
2023-09-21T05:59:43.455Z,100326.56
2023-09-21T06:02:46.453Z,100324.25
2023-09-21T06:05:49.450Z,100325.28
2023-09-21T06:08:54.278Z,100325.03
2023-09-21T06:11:57.215Z,100326.06
2023-09-21T06:15:00.110Z,100327.94
2023-09-21T06:18:03.114Z,100326.44
2023-09-21T06:21:08.028Z,100326.78
2023-09-21T06:24:11.604Z,100322.34
2023-09-21T06:27:15.836Z,100311.88
2023-09-21T06:30:19.260Z,100312.97
2023-09-21T06:33:26.070Z,100322.16
2023-09-21T06:36:30.624Z,100327.53
2023-09-21T06:39:33.989Z,100318.16
2023-09-21T06:42:37.066Z,100325.16
2023-09-21T06:45:41.023Z,100324.88
2023-09-21T06:48:44.395Z,100329.28
2023-09-21T06:51:48.236Z,100333.69
2023-09-21T06:54:51.156Z,100332.91
2023-09-21T06:57:56.560Z,100338.75
2023-09-21T07:01:00.034Z,100338.03
2023-09-21T07:04:05.567Z,100348.44
2023-09-21T07:07:09.620Z,100346.69
2023-09-21T07:10:16.022Z,100347.63
2023-09-21T07:13:22.118Z,100348.28
2023-09-21T07:16:25.203Z,100353.97
2023-09-21T07:19:28.032Z,100364.00
2023-09-21T07:22:30.816Z,100357.09
2023-09-21T07:25:33.649Z,100359.25
2023-09-21T07:28:36.804Z,100354.22
2023-09-21T07:31:39.797Z,100355.31
2023-09-21T07:34:42.750Z,100350.09
2023-09-21T07:37:47.615Z,100347.94
2023-09-21T07:40:50.924Z,100342.06
2023-09-21T07:43:53.929Z,100349.72
2023-09-21T07:46:58.505Z,100351.56
2023-09-21T07:50:01.409Z,100351.03
2023-09-21T07:53:05.572Z,100346.41
2023-09-21T07:56:13.372Z,100343.66
2023-09-21T07:59:17.371Z,100338.03
2023-09-21T08:02:20.459Z,100339.84
2023-09-21T08:05:24.158Z,100340.91
2023-09-21T08:08:27.479Z,100338.88
2023-09-21T08:11:30.554Z,100343.69
2023-09-21T08:14:36.265Z,100338.84
2023-09-21T08:17:42.444Z,100337.56
2023-09-21T08:20:45.438Z,100338.03
2023-09-21T08:23:48.375Z,100335.63
2023-09-21T08:26:51.563Z,100342.06
2023-09-21T08:29:54.349Z,100332.94
2023-09-21T08:32:57.187Z,100332.06
2023-09-21T08:36:01.531Z,100335.13
2023-09-21T08:39:06.112Z,100335.84
2023-09-21T08:42:11.246Z,100330.50
2023-09-21T08:45:16.572Z,100330.72
2023-09-21T08:48:22.254Z,100336.97
2023-09-21T08:51:27.035Z,100334.84
2023-09-21T08:54:30.692Z,100324.66
2023-09-21T08:57:33.668Z,100317.31
2023-09-21T09:00:37.428Z,100311.88
2023-09-21T09:03:41.298Z,100320.72
2023-09-21T09:06:44.422Z,100313.00
2023-09-21T09:09:47.763Z,100312.59
2023-09-21T09:13:06.785Z,100310.41
2023-09-21T09:16:09.741Z,100301.66
2023-09-21T09:19:13.567Z,100299.66
2023-09-21T09:22:17.523Z,100298.28
2023-09-21T09:25:22.536Z,100288.78
2023-09-21T09:28:27.633Z,100290.63
2023-09-21T09:31:30.646Z,100293.97
2023-09-21T09:34:33.456Z,100280.69
2023-09-21T09:37:38.830Z,100286.22
2023-09-21T09:40:44.104Z,100290.28
2023-09-21T09:43:53.895Z,100269.22
2023-09-21T09:46:59.210Z,100267.25
2023-09-21T09:50:04.370Z,100268.25
2023-09-21T09:53:12.379Z,100270.03
2023-09-21T09:56:16.421Z,100265.59
2023-09-21T09:59:22.828Z,100261.13
2023-09-21T10:02:32.245Z,100245.66
2023-09-21T10:05:37.429Z,100243.94
2023-09-21T10:08:41.113Z,100241.41
2023-09-21T10:11:48.360Z,100234.84
2023-09-21T10:14:51.542Z,100229.03
2023-09-21T10:17:58.694Z,100216.97
2023-09-21T10:21:32.355Z,100223.59
2023-09-21T10:24:35.777Z,100209.22
2023-09-21T10:27:40.918Z,100205.44
2023-09-21T10:30:44.805Z,100203.22
2023-09-21T10:34:02.758Z,100199.69
2023-09-21T10:37:12.541Z,100189.41
2023-09-21T10:40:21.406Z,100184.81
2023-09-21T10:43:39.168Z,100185.84
2023-09-21T10:46:45.234Z,100172.38
2023-09-21T10:49:50.068Z,100170.81
2023-09-21T10:52:57.118Z,100165.00
2023-09-21T10:56:01.151Z,100158.03
2023-09-21T10:59:03.988Z,100159.50
2023-09-21T11:02:08.193Z,100156.66
2023-09-21T11:05:12.253Z,100152.59
2023-09-21T11:08:16.915Z,100154.78
2023-09-21T11:11:23.456Z,100144.91
2023-09-21T11:14:26.497Z,100139.28
2023-09-21T11:17:30.363Z,100143.47
2023-09-21T11:20:33.650Z,100144.34
2023-09-21T11:23:40.194Z,100130.06
2023-09-21T11:26:55.809Z,100127.59
2023-09-21T11:29:58.898Z,100122.19
2023-09-21T11:33:01.989Z,100113.34
2023-09-21T11:36:22.838Z,100107.13
2023-09-21T11:39:29.147Z,100102.06
2023-09-21T11:42:34.611Z,100106.78
2023-09-21T11:45:43.702Z,100096.34
2023-09-21T11:48:50.186Z,100100.66
2023-09-21T11:51:54.685Z,100093.50
2023-09-21T11:54:58.197Z,100076.50
2023-09-21T11:58:08.720Z,100080.34
2023-09-21T12:01:11.899Z,100074.03
2023-09-21T12:04:18.288Z,100070.25
2023-09-21T12:07:21.547Z,100068.97
2023-09-21T12:10:25.727Z,100063.75
2023-09-21T12:13:31.743Z,100053.97
2023-09-21T12:16:35.618Z,100055.44
2023-09-21T12:19:40.594Z,100048.97
2023-09-21T12:22:43.756Z,100050.81
2023-09-21T12:25:47.879Z,100047.50
2023-09-21T12:28:50.939Z,100046.47
2023-09-21T12:31:59.913Z,100033.13
2023-09-21T12:35:07.944Z,100036.06
2023-09-21T12:38:14.486Z,100025.34
2023-09-21T12:41:17.396Z,100026.63
2023-09-21T12:44:20.495Z,100020.28
2023-09-21T12:47:23.643Z,100019.53
2023-09-21T12:50:27.949Z,100024.84
2023-09-21T12:53:31.242Z,100014.28
2023-09-21T12:56:35.332Z,100022.22
2023-09-21T12:59:38.460Z,100011.69
2023-09-21T13:02:43.558Z,99999.94
2023-09-21T13:05:49.000Z,99996.28
2023-09-21T13:08:51.863Z,100005.63
2023-09-21T13:11:56.306Z,99996.28
2023-09-21T13:14:59.843Z,99992.38
2023-09-21T13:18:03.986Z,99978.63
2023-09-21T13:21:11.664Z,99984.00
2023-09-21T13:24:14.938Z,99976.81
2023-09-21T13:27:18.844Z,99973.31
2023-09-21T13:30:22.185Z,99976.34
2023-09-21T13:33:25.847Z,99963.84
2023-09-21T13:39:51.305Z,99968.53
2023-09-21T13:42:55.045Z,99965.44
2023-09-21T13:46:00.911Z,99971.88
2023-09-21T13:49:04.384Z,99964.91
2023-09-21T13:52:08.302Z,99962.03
2023-09-21T13:55:18.362Z,99961.47
2023-09-21T13:58:23.872Z,99965.19
2023-09-21T14:01:28.567Z,99960.31
2023-09-21T14:04:31.813Z,99950.28
2023-09-21T14:07:36.036Z,99949.47
2023-09-21T14:10:40.246Z,99959.50
2023-09-21T14:13:43.543Z,99943.66
2023-09-21T14:16:47.589Z,99946.22
2023-09-21T14:19:50.967Z,99946.56
2023-09-21T14:22:56.336Z,99947.00
2023-09-21T14:25:59.130Z,99948.50
2023-09-21T14:29:01.861Z,99937.56
2023-09-21T14:32:05.477Z,99935.09
2023-09-21T14:35:14.540Z,99929.06
2023-09-21T14:38:18.205Z,99929.78
2023-09-21T14:41:20.929Z,99930.66
2023-09-21T14:44:23.949Z,99935.38
2023-09-21T14:47:32.065Z,99932.50
2023-09-21T14:50:35.321Z,99925.72
2023-09-21T14:53:38.334Z,99922.09
2023-09-21T14:56:46.330Z,99924.91
2023-09-21T14:59:49.364Z,99924.22
2023-09-21T15:02:54.056Z,99930.25
2023-09-21T15:05:57.055Z,99916.97
2023-09-21T15:09:00.346Z,99917.31
2023-09-21T15:12:04.893Z,99906.03
2023-09-21T15:15:09.186Z,99901.72
2023-09-21T15:18:15.335Z,99908.31
2023-09-21T15:21:19.406Z,99908.75
2023-09-21T15:24:23.701Z,99908.53
2023-09-21T15:27:32.820Z,99903.81
2023-09-21T15:30:43.010Z,99902.03
2023-09-21T15:33:56.280Z,99906.97
2023-09-21T15:36:59.373Z,99916.09
2023-09-21T15:40:02.523Z,99915.97
2023-09-21T15:43:06.117Z,99919.13
2023-09-21T15:46:09.292Z,99923.97
2023-09-21T15:49:13.083Z,99921.13
2023-09-21T15:52:16.772Z,99927.09
2023-09-21T15:55:19.811Z,99919.47
2023-09-21T15:58:22.520Z,99930.69
2023-09-21T16:01:25.820Z,99934.91
2023-09-21T16:04:29.487Z,99935.72
2023-09-21T16:07:32.680Z,99934.06
2023-09-21T16:10:35.610Z,99946.69
2023-09-21T16:13:38.835Z,99954.22
2023-09-21T16:16:41.997Z,99959.25
2023-09-21T16:19:45.141Z,99958.16
2023-09-21T16:22:48.950Z,99960.09
2023-09-21T16:25:52.203Z,99966.09
2023-09-21T16:28:55.268Z,99969.34
2023-09-21T16:32:01.281Z,99975.94
2023-09-21T16:35:05.526Z,99987.47
2023-09-21T16:38:09.114Z,99990.50
2023-09-21T16:41:12.304Z,100009.06
2023-09-21T16:44:14.982Z,100024.56
2023-09-21T16:47:21.944Z,100015.59
2023-09-21T16:50:24.735Z,100033.19
2023-09-21T16:53:29.078Z,100047.63
2023-09-21T16:56:34.518Z,100053.03
2023-09-21T16:59:37.480Z,100035.97
2023-09-21T17:02:40.901Z,100033.00
2023-09-21T17:05:43.722Z,100035.94
2023-09-21T17:08:47.368Z,100042.72
2023-09-21T17:11:50.194Z,100040.69
2023-09-21T17:14:56.194Z,100052.94
2023-09-21T17:18:00.004Z,100053.56
2023-09-21T17:21:06.813Z,100064.56
2023-09-21T17:24:10.284Z,100059.25
2023-09-21T17:27:13.173Z,100061.84
2023-09-21T17:30:16.686Z,100056.41
2023-09-21T17:33:20.844Z,100061.13
2023-09-21T17:36:25.115Z,100047.50
2023-09-21T17:39:42.937Z,100041.38
2023-09-21T17:42:47.450Z,100033.69
2023-09-21T17:45:50.716Z,100030.19
2023-09-21T17:48:57.184Z,100045.72
2023-09-21T17:55:54.019Z,100017.34
2023-09-21T17:58:57.420Z,100013.56
2023-09-21T18:02:00.654Z,100023.75
2023-09-21T18:05:04.378Z,100035.06
2023-09-21T18:08:07.648Z,100033.44
2023-09-21T18:11:10.721Z,100040.50
2023-09-21T18:14:13.846Z,100052.06
2023-09-21T18:17:17.144Z,100051.66
2023-09-21T18:20:22.990Z,100053.56
2023-09-21T18:23:26.849Z,100060.34
2023-09-21T18:26:29.935Z,100053.25
2023-09-21T18:29:34.175Z,100067.81
2023-09-21T18:32:38.300Z,100071.53
2023-09-21T18:35:41.871Z,100066.72
2023-09-21T18:38:46.518Z,100067.03
2023-09-21T18:41:50.018Z,100074.28
2023-09-21T18:44:52.809Z,100075.34
2023-09-21T18:47:55.722Z,100078.53
2023-09-21T18:51:01.039Z,100070.16
2023-09-21T18:54:06.671Z,100065.44
2023-09-21T18:57:10.511Z,100064.72
2023-09-21T19:00:15.928Z,100061.31
2023-09-21T19:03:19.881Z,100066.22
2023-09-21T19:06:23.411Z,100066.94
2023-09-21T19:09:26.544Z,100071.59
2023-09-21T19:12:30.239Z,100070.31
2023-09-21T19:15:33.593Z,100077.34
2023-09-21T19:18:36.855Z,100078.16
2023-09-21T19:21:39.650Z,100082.22
2023-09-21T19:24:43.365Z,100080.91
2023-09-21T19:27:49.241Z,100081.72
2023-09-21T19:30:52.427Z,100082.31
2023-09-21T19:33:56.660Z,100090.53
2023-09-21T19:36:59.780Z,100083.25
2023-09-21T19:40:03.105Z,100088.19
2023-09-21T19:43:06.297Z,100085.81
2023-09-21T19:46:09.446Z,100090.88
2023-09-21T19:49:14.104Z,100093.31
2023-09-21T19:52:16.931Z,100095.44
2023-09-21T19:55:19.915Z,100086.03
2023-09-21T19:58:23.038Z,100081.53
2023-09-21T20:01:26.399Z,100090.94
2023-09-21T20:04:29.501Z,100088.59
2023-09-21T20:07:32.884Z,100080.34
2023-09-21T20:10:35.952Z,100079.88
2023-09-21T20:13:39.217Z,100079.88
2023-09-21T20:16:42.224Z,100083.44
2023-09-21T20:19:45.076Z,100075.63
2023-09-21T20:22:47.940Z,100081.81
2023-09-21T20:25:50.921Z,100073.00
2023-09-21T20:28:53.698Z,100079.16
2023-09-21T20:31:57.275Z,100074.59
2023-09-21T20:35:00.189Z,100083.22
2023-09-21T20:38:03.557Z,100075.16
2023-09-21T20:41:06.453Z,100080.56
2023-09-21T20:44:09.615Z,100089.16
2023-09-21T20:47:12.402Z,100085.94
2023-09-21T20:50:15.486Z,100088.88
2023-09-21T20:53:18.736Z,100084.31
2023-09-21T20:56:21.475Z,100088.88
2023-09-21T20:59:24.200Z,100090.22
2023-09-21T21:02:27.377Z,100088.88
2023-09-21T21:05:31.037Z,100088.06
2023-09-21T21:08:35.198Z,100084.03
2023-09-21T21:11:38.240Z,100079.47
2023-09-21T21:14:42.171Z,100080.28
2023-09-21T21:17:45.230Z,100079.19
2023-09-21T21:20:48.060Z,100089.16
2023-09-21T21:23:51.045Z,100085.59
2023-09-21T21:26:54.587Z,100086.69
2023-09-21T21:29:57.607Z,100082.63
2023-09-21T21:33:00.697Z,100093.66
2023-09-21T21:36:04.136Z,100093.06
2023-09-21T21:39:07.263Z,100086.63
2023-09-21T21:42:11.274Z,100085.31
2023-09-21T21:45:14.786Z,100079.69
2023-09-21T21:48:17.837Z,100081.84
2023-09-21T21:51:20.648Z,100087.41
2023-09-21T21:54:23.566Z,100084.72
2023-09-21T21:57:26.804Z,100090.09
2023-09-21T22:00:32.809Z,100091.97
2023-09-21T22:03:36.060Z,100087.09
2023-09-21T22:06:39.204Z,100087.09
2023-09-21T22:09:42.519Z,100090.59
2023-09-21T22:12:45.792Z,100088.69
2023-09-21T22:15:49.409Z,100083.59
2023-09-21T22:18:52.393Z,100080.38
2023-09-21T22:21:56.822Z,100079.81
2023-09-21T22:25:01.281Z,100073.66
2023-09-21T22:28:05.279Z,100077.38
2023-09-21T22:31:13.300Z,100079.00
2023-09-21T22:34:16.547Z,100073.59
2023-09-21T22:37:19.592Z,100077.88
2023-09-21T22:40:22.600Z,100076.00
2023-09-21T22:43:26.078Z,100073.06
2023-09-21T22:46:29.193Z,100067.69
2023-09-21T22:49:32.774Z,100069.53
2023-09-21T22:52:35.917Z,100065.00
2023-09-21T22:55:39.222Z,100081.06
2023-09-21T22:58:41.985Z,100076.50
2023-09-21T23:01:45.143Z,100076.25
2023-09-21T23:04:51.922Z,100074.31
2023-09-21T23:07:57.321Z,100070.28
2023-09-21T23:11:04.332Z,100064.66
2023-09-21T23:14:07.389Z,100068.38
2023-09-21T23:17:10.554Z,100059.25
2023-09-21T23:20:16.746Z,100069.69
2023-09-21T23:23:19.953Z,100064.28
2023-09-21T23:26:22.997Z,100065.63
2023-09-21T23:29:26.045Z,100057.03
2023-09-21T23:32:29.344Z,100053.03
2023-09-21T23:35:33.728Z,100052.72
2023-09-21T23:38:36.578Z,100057.81
2023-09-21T23:41:39.638Z,100058.03
2023-09-21T23:44:42.882Z,100059.09
2023-09-21T23:47:45.963Z,100054.56
2023-09-21T23:50:49.046Z,100063.69
2023-09-21T23:53:52.658Z,100062.63
2023-09-21T23:56:55.898Z,100068.22
2023-09-21T23:59:59.685Z,100063.69
